createdAt,value
2022-12-19T00:00:32.669Z,10.13
2022-12-19T00:03:01.009Z,10.27
2022-12-19T00:05:29.301Z,10.93
2022-12-19T00:07:57.490Z,10.63
2022-12-19T00:10:27.209Z,11.00
2022-12-19T00:12:55.436Z,10.53
2022-12-19T00:15:23.674Z,12.23
2022-12-19T00:17:53.264Z,11.20
2022-12-19T00:20:21.500Z,12.57
2022-12-19T00:22:49.860Z,11.60
2022-12-19T00:25:19.426Z,10.83
2022-12-19T00:27:48.730Z,10.83
2022-12-19T00:30:17.027Z,10.57
2022-12-19T00:32:45.219Z,12.03
2022-12-19T00:35:15.184Z,10.33
2022-12-19T00:37:49.745Z,10.30
2022-12-19T00:40:19.091Z,10.63
2022-12-19T00:42:53.354Z,10.57
2022-12-19T00:45:22.505Z,9.60
2022-12-19T00:47:50.767Z,10.67
2022-12-19T00:50:23.247Z,10.40
2022-12-19T00:52:51.559Z,10.50
2022-12-19T00:55:19.775Z,10.60
2022-12-19T00:57:48.480Z,10.60
2022-12-19T01:00:18.403Z,10.90
2022-12-19T01:02:47.007Z,11.00
2022-12-19T01:05:15.479Z,9.17
2022-12-19T01:07:45.208Z,11.00
2022-12-19T01:10:13.488Z,10.63
2022-12-19T01:12:46.340Z,10.10
2022-12-19T01:15:17.418Z,9.37
2022-12-19T01:17:45.773Z,10.27
2022-12-19T01:20:15.382Z,10.10
2022-12-19T01:22:45.481Z,7.93
2022-12-19T01:25:15.931Z,8.07
2022-12-19T01:27:44.139Z,9.00
2022-12-19T01:30:13.888Z,6.50
2022-12-19T01:32:44.008Z,8.13
2022-12-19T01:35:21.144Z,7.30
2022-12-19T01:37:51.843Z,7.60
2022-12-19T01:40:25.056Z,6.80
2022-12-19T01:42:53.308Z,6.40
2022-12-19T01:45:34.486Z,6.57
2022-12-19T01:51:00.112Z,6.27
2022-12-19T01:53:36.654Z,7.17
2022-12-19T01:56:12.317Z,7.53
2022-12-19T01:58:46.606Z,8.57
2022-12-19T02:01:16.552Z,8.73
2022-12-19T02:03:46.549Z,8.97
2022-12-19T02:06:17.077Z,8.23
2022-12-19T02:08:49.565Z,4.83
2022-12-19T02:11:18.178Z,6.23
2022-12-19T02:13:46.904Z,8.30
2022-12-19T02:16:26.359Z,9.03
2022-12-19T02:19:05.398Z,10.30
2022-12-19T02:21:45.570Z,8.63
2022-12-19T02:24:46.254Z,8.37
2022-12-19T02:27:40.085Z,9.80
2022-12-19T02:30:14.536Z,8.13
2022-12-19T02:32:53.333Z,7.13
2022-12-19T02:35:30.598Z,9.40
2022-12-19T02:38:10.464Z,7.73
2022-12-19T02:40:46.877Z,9.87
2022-12-19T02:43:21.914Z,10.70
2022-12-19T02:45:51.908Z,5.60
2022-12-19T02:48:22.158Z,11.03
2022-12-19T02:50:50.806Z,8.87
2022-12-19T02:53:23.691Z,10.13
2022-12-19T02:56:05.648Z,11.20
2022-12-19T02:58:52.319Z,11.73
2022-12-19T03:04:14.880Z,9.10
2022-12-19T03:06:50.085Z,10.77
2022-12-19T03:09:24.396Z,10.40
2022-12-19T03:11:58.336Z,8.97
2022-12-19T03:14:27.938Z,9.27
2022-12-19T03:16:56.411Z,9.73
2022-12-19T03:19:27.712Z,9.77
2022-12-19T03:21:56.121Z,10.57
2022-12-19T03:24:24.591Z,11.03
2022-12-19T03:27:00.180Z,8.37
2022-12-19T03:29:32.984Z,7.47
2022-12-19T03:32:04.129Z,9.50
2022-12-19T03:34:40.071Z,8.20
2022-12-19T03:37:13.743Z,10.03
2022-12-19T03:39:44.196Z,7.03
2022-12-19T03:42:37.357Z,4.20
2022-12-19T03:45:07.796Z,11.43
2022-12-19T03:47:39.500Z,11.87
2022-12-19T03:52:44.778Z,9.27
2022-12-19T03:55:19.026Z,10.23
2022-12-19T03:57:53.385Z,10.60
2022-12-19T04:00:23.624Z,9.73
2022-12-19T04:02:54.890Z,10.37
2022-12-19T04:05:27.090Z,9.60
2022-12-19T04:07:57.796Z,8.77
2022-12-19T04:10:28.597Z,10.70
2022-12-19T04:13:01.463Z,12.25
2022-12-19T04:15:36.068Z,10.97
2022-12-19T04:18:08.030Z,11.30
2022-12-19T04:20:40.108Z,10.93
2022-12-19T04:23:15.115Z,10.90
2022-12-19T04:25:47.323Z,11.27
2022-12-19T04:28:20.619Z,10.37
2022-12-19T04:30:50.909Z,10.87
2022-12-19T04:33:19.175Z,8.50
2022-12-19T04:35:48.966Z,11.23
2022-12-19T04:38:17.297Z,11.43
2022-12-19T04:40:45.624Z,10.70
2022-12-19T04:43:13.866Z,11.33
2022-12-19T04:45:43.014Z,10.20
2022-12-19T04:48:11.543Z,11.43
2022-12-19T04:50:39.754Z,10.47
2022-12-19T04:53:09.388Z,11.80
2022-12-19T04:55:37.917Z,11.20
2022-12-19T04:58:06.579Z,10.13
2022-12-19T05:00:36.165Z,9.67
2022-12-19T05:03:04.603Z,11.03
2022-12-19T05:05:33.130Z,10.63
2022-12-19T05:08:01.896Z,10.77
2022-12-19T05:10:31.548Z,10.97
2022-12-19T05:12:59.892Z,10.07
2022-12-19T05:15:28.231Z,11.33
2022-12-19T05:17:56.570Z,11.73
2022-12-19T05:20:25.029Z,11.50
2022-12-19T05:22:53.461Z,12.07
2022-12-19T05:25:21.817Z,12.20
2022-12-19T05:27:51.535Z,11.23
2022-12-19T05:30:20.212Z,11.70
2022-12-19T05:32:48.523Z,10.53
2022-12-19T05:35:16.850Z,10.80
2022-12-19T05:37:45.152Z,12.63
2022-12-19T05:40:14.178Z,11.80
2022-12-19T05:42:42.484Z,10.73
2022-12-19T05:45:12.581Z,11.87
2022-12-19T05:47:40.846Z,11.40
2022-12-19T05:50:10.192Z,10.93
2022-12-19T05:52:38.428Z,10.97
2022-12-19T05:55:07.899Z,10.87
2022-12-19T05:57:36.631Z,11.60
2022-12-19T06:00:06.009Z,9.57
2022-12-19T06:02:35.856Z,10.10
2022-12-19T06:05:04.273Z,9.27
2022-12-19T06:07:32.526Z,9.53
2022-12-19T06:10:00.845Z,7.50
2022-12-19T06:12:29.134Z,5.30
2022-12-19T06:14:57.411Z,10.87
2022-12-19T06:17:25.801Z,10.80
2022-12-19T06:19:55.878Z,8.13
2022-12-19T06:22:24.249Z,9.90
2022-12-19T06:24:52.868Z,10.40
2022-12-19T06:27:21.291Z,5.47
2022-12-19T06:29:49.882Z,8.30
2022-12-19T06:32:18.237Z,8.63
2022-12-19T06:35:03.823Z,7.87
2022-12-19T06:37:34.696Z,7.63
2022-12-19T06:40:05.648Z,5.97
2022-12-19T06:42:32.887Z,8.00
2022-12-19T06:45:01.130Z,9.20
2022-12-19T06:47:29.353Z,8.77
2022-12-19T06:49:57.631Z,9.30
2022-12-19T06:52:25.919Z,10.10
2022-12-19T06:54:55.715Z,9.67
2022-12-19T06:57:24.282Z,10.80
2022-12-19T06:59:52.669Z,10.07
2022-12-19T07:02:27.902Z,8.77
2022-12-19T07:05:01.008Z,8.50
2022-12-19T07:07:30.215Z,9.30
2022-12-19T07:10:00.152Z,8.43
2022-12-19T07:12:28.804Z,8.27
2022-12-19T07:14:57.164Z,6.73
2022-12-19T07:17:27.091Z,7.13
2022-12-19T07:19:57.287Z,7.63
2022-12-19T07:22:28.047Z,6.70
2022-12-19T07:24:57.590Z,8.43
2022-12-19T07:27:35.397Z,8.90
2022-12-19T07:30:05.170Z,9.27
2022-12-19T07:32:34.046Z,8.63
2022-12-19T07:35:02.847Z,8.80
2022-12-19T07:37:31.669Z,8.10
2022-12-19T07:40:01.078Z,5.67
2022-12-19T07:42:32.746Z,10.80
2022-12-19T07:45:02.803Z,10.83
2022-12-19T07:47:31.145Z,8.73
2022-12-19T07:49:59.612Z,8.37
2022-12-19T07:52:28.031Z,8.07
2022-12-19T07:54:56.551Z,7.17
2022-12-19T07:57:25.226Z,6.77
2022-12-19T07:59:55.077Z,5.50
2022-12-19T08:02:23.473Z,5.40
2022-12-19T08:04:52.014Z,4.50
2022-12-19T08:07:20.303Z,3.13
2022-12-19T08:09:48.773Z,3.00
2022-12-19T08:12:17.088Z,2.23
2022-12-19T08:14:45.483Z,1.70
2022-12-19T08:17:21.161Z,1.90
2022-12-19T08:19:49.826Z,1.13
2022-12-19T08:22:18.214Z,2.20
2022-12-19T08:24:46.657Z,3.27
2022-12-19T08:27:16.457Z,2.90
2022-12-19T08:29:44.761Z,2.43
2022-12-19T08:32:18.683Z,3.07
2022-12-19T08:34:50.972Z,3.23
2022-12-19T08:37:19.391Z,3.27
2022-12-19T08:39:47.794Z,10.57
2022-12-19T08:42:16.042Z,15.83
2022-12-19T08:44:44.273Z,9.70
2022-12-19T08:47:12.517Z,7.32
2022-12-19T08:49:40.710Z,6.53
2022-12-19T08:52:10.612Z,7.72
2022-12-19T08:54:38.924Z,8.18
2022-12-19T08:57:07.251Z,8.27
2022-12-19T08:59:35.604Z,8.10
2022-12-19T09:02:06.476Z,9.23
2022-12-19T09:05:59.849Z,8.70
2022-12-19T09:07:24.467Z,8.10
2022-12-19T09:09:52.924Z,8.48
2022-12-19T09:12:21.853Z,8.90
2022-12-19T09:14:50.494Z,9.73
2022-12-19T09:17:19.107Z,9.80
2022-12-19T09:19:48.250Z,9.70
2022-12-19T09:22:17.503Z,10.13
2022-12-19T09:24:47.211Z,10.02
2022-12-19T09:27:15.491Z,10.98
2022-12-19T09:29:44.278Z,10.75
2022-12-19T09:32:12.845Z,9.88
2022-12-19T09:34:41.018Z,9.85
2022-12-19T09:37:15.976Z,9.48
2022-12-19T09:39:47.672Z,11.40
2022-12-19T09:42:29.284Z,10.75
2022-12-19T09:45:14.473Z,10.82
2022-12-19T09:47:50.038Z,10.98
2022-12-19T09:50:30.723Z,11.63
2022-12-19T09:53:03.933Z,12.45
2022-12-19T09:55:36.858Z,12.65
2022-12-19T09:58:12.718Z,11.73
2022-12-19T10:00:44.845Z,11.43
2022-12-19T10:03:23.216Z,11.18
2022-12-19T10:06:17.833Z,11.02
2022-12-19T10:08:56.959Z,10.07
2022-12-19T10:12:42.462Z,9.77
2022-12-19T10:14:58.935Z,8.93
2022-12-19T10:17:33.545Z,10.63
2022-12-19T10:20:16.300Z,10.60
2022-12-19T10:22:55.724Z,10.93
2022-12-19T10:25:38.109Z,12.02
2022-12-19T10:28:21.123Z,9.38
2022-12-19T10:31:02.652Z,13.20
2022-12-19T10:33:44.079Z,11.35
2022-12-19T10:36:13.311Z,9.27
2022-12-19T10:38:51.297Z,8.80
2022-12-19T10:41:23.244Z,9.00
2022-12-19T10:44:02.450Z,9.85
2022-12-19T10:46:42.540Z,9.70
2022-12-19T10:49:16.979Z,9.45
2022-12-19T10:51:55.065Z,9.75
2022-12-19T10:54:33.047Z,10.68
2022-12-19T10:57:19.949Z,10.10
2022-12-19T10:59:59.040Z,12.27
2022-12-19T11:02:43.272Z,13.43
2022-12-19T11:05:25.938Z,14.30
2022-12-19T11:08:11.230Z,14.95
2022-12-19T11:12:46.930Z,15.30
2022-12-19T11:19:58.153Z,15.07
2022-12-19T11:21:56.214Z,14.82
2022-12-19T11:29:19.252Z,14.35
2022-12-19T11:30:26.147Z,14.77
2022-12-19T11:30:59.413Z,15.80
2022-12-19T11:34:02.967Z,14.88
2022-12-19T11:36:34.055Z,15.10
2022-12-19T11:39:03.762Z,15.05
2022-12-19T11:41:37.315Z,14.63
2022-12-19T11:44:13.858Z,14.35
2022-12-19T11:46:48.279Z,15.77
2022-12-19T11:49:27.198Z,15.93
2022-12-19T11:52:02.579Z,15.07
2022-12-19T11:54:35.841Z,15.27
2022-12-19T11:57:04.265Z,16.02
2022-12-19T11:59:33.845Z,15.63
2022-12-19T12:02:31.667Z,16.13
2022-12-19T12:05:22.817Z,15.63
2022-12-19T12:08:49.414Z,14.50
2022-12-19T12:13:58.097Z,15.00
2022-12-19T12:26:30.579Z,14.20
2022-12-19T12:30:53.640Z,11.63
2022-12-19T12:31:14.253Z,13.50
2022-12-19T12:31:49.076Z,12.85
2022-12-19T12:32:03.193Z,10.43
2022-12-19T12:32:05.067Z,14.07
2022-12-19T12:35:12.681Z,8.57
2022-12-19T12:38:43.216Z,10.05
2022-12-19T12:41:44.254Z,9.35
2022-12-19T12:44:14.386Z,9.93
2022-12-19T12:46:47.402Z,16.08
2022-12-19T12:49:30.001Z,13.93
2022-12-19T12:52:02.556Z,15.30
2022-12-19T12:54:36.528Z,14.40
2022-12-19T12:57:05.162Z,14.55
2022-12-19T12:59:33.481Z,13.45
2022-12-19T13:02:08.562Z,15.50
2022-12-19T13:04:45.227Z,14.43
2022-12-19T13:07:35.987Z,15.00
2022-12-19T13:10:17.568Z,14.48
2022-12-19T13:13:05.141Z,15.15
2022-12-19T13:15:45.993Z,14.55
2022-12-19T13:18:30.099Z,14.48
2022-12-19T13:20:58.944Z,14.88
2022-12-19T13:23:47.123Z,13.88
2022-12-19T13:26:24.650Z,14.82
2022-12-19T13:28:53.011Z,14.63
2022-12-19T13:31:23.519Z,13.88
2022-12-19T13:34:19.408Z,14.55
2022-12-19T13:40:00.221Z,14.77
2022-12-19T13:40:08.934Z,15.65
2022-12-19T13:43:10.031Z,14.75
2022-12-19T13:45:42.562Z,15.85
2022-12-19T13:48:17.756Z,15.23
2022-12-19T13:50:49.788Z,15.10
2022-12-19T13:53:19.432Z,16.23
2022-12-19T13:55:49.800Z,14.55
2022-12-19T13:58:29.258Z,15.55
2022-12-19T14:01:02.311Z,15.80
2022-12-19T14:03:38.611Z,12.63
2022-12-19T14:06:16.720Z,13.02
2022-12-19T14:08:48.253Z,14.63
2022-12-19T14:13:41.484Z,14.95
2022-12-19T14:14:58.047Z,14.02
2022-12-19T14:17:38.732Z,12.57
2022-12-19T14:22:08.687Z,12.30
2022-12-19T14:23:12.099Z,10.07
2022-12-19T14:28:17.070Z,11.93
2022-12-19T14:28:42.056Z,11.55
2022-12-19T14:31:15.732Z,9.93
2022-12-19T14:34:11.107Z,11.05
2022-12-19T14:36:37.889Z,10.80
2022-12-19T14:39:23.899Z,11.77
2022-12-19T14:42:13.297Z,10.63
2022-12-19T14:52:08.398Z,10.70
2022-12-19T14:54:14.692Z,11.90
2022-12-19T14:54:23.671Z,10.60
2022-12-19T14:54:39.879Z,11.23
2022-12-19T14:59:03.162Z,11.35
2022-12-19T15:01:35.152Z,10.93
2022-12-19T15:04:50.455Z,10.95
2022-12-19T15:07:08.624Z,11.45
2022-12-19T15:11:07.603Z,10.65
2022-12-19T15:14:54.202Z,11.18
2022-12-19T15:15:56.618Z,11.20
2022-12-19T15:18:37.703Z,10.77
2022-12-19T15:21:08.200Z,10.55
2022-12-19T15:23:36.765Z,10.75
2022-12-19T15:26:07.952Z,10.07
2022-12-19T15:31:26.934Z,11.65
2022-12-19T15:36:45.317Z,14.07
2022-12-19T15:39:15.384Z,14.57
2022-12-19T15:41:44.321Z,15.05
2022-12-19T15:44:18.746Z,14.57
2022-12-19T15:46:49.348Z,14.02
2022-12-19T15:49:20.837Z,15.95
2022-12-19T15:51:49.831Z,15.18
2022-12-19T15:57:07.397Z,14.55
2022-12-19T15:59:46.650Z,13.25
2022-12-19T16:02:18.754Z,13.70
2022-12-19T16:04:51.215Z,12.27
2022-12-19T16:07:22.065Z,10.68
2022-12-19T16:09:51.032Z,11.80
2022-12-19T16:12:22.641Z,12.25
2022-12-19T16:14:57.215Z,10.38
2022-12-19T16:17:27.172Z,8.95
2022-12-19T16:19:56.813Z,11.57
2022-12-19T16:22:27.486Z,11.45
2022-12-19T16:24:56.080Z,7.35
2022-12-19T16:27:28.010Z,10.43
2022-12-19T16:29:57.257Z,8.73
2022-12-19T16:32:25.798Z,10.07
2022-12-19T16:34:54.982Z,8.02
2022-12-19T16:37:31.754Z,7.87
2022-12-19T16:40:02.072Z,5.20
2022-12-19T16:42:31.385Z,5.93
2022-12-19T16:44:59.582Z,6.10
2022-12-19T16:47:27.965Z,6.93
2022-12-19T16:49:56.282Z,9.90
2022-12-19T16:52:25.900Z,7.63
2022-12-19T16:54:54.084Z,10.18
2022-12-19T16:57:23.492Z,13.10
2022-12-19T16:59:52.288Z,6.95
2022-12-19T17:02:40.496Z,9.85
2022-12-19T17:05:15.278Z,6.63
2022-12-19T17:07:44.868Z,7.27
2022-12-19T17:10:13.531Z,7.38
2022-12-19T17:12:44.191Z,9.98
2022-12-19T17:15:22.606Z,8.37
2022-12-19T17:17:51.468Z,11.40
2022-12-19T17:20:22.029Z,10.50
2022-12-19T17:22:51.939Z,10.52
2022-12-19T17:25:24.036Z,10.35
2022-12-19T17:27:53.575Z,7.93
2022-12-19T17:30:22.737Z,10.00
2022-12-19T17:32:54.490Z,9.23
2022-12-19T17:37:59.174Z,7.78
2022-12-19T17:40:29.462Z,8.55
2022-12-19T17:42:58.663Z,8.45
2022-12-19T17:45:29.044Z,9.13
2022-12-19T17:48:02.873Z,7.95
2022-12-19T17:50:34.265Z,8.40
2022-12-19T17:53:03.892Z,8.73
2022-12-19T17:55:33.490Z,6.25
2022-12-19T17:58:01.694Z,5.37
2022-12-19T18:00:32.312Z,5.57
2022-12-19T18:03:04.981Z,6.77
2022-12-19T18:05:36.253Z,8.07
2022-12-19T18:08:16.392Z,6.05
2022-12-19T18:10:45.301Z,7.67
2022-12-19T18:13:13.591Z,8.43
2022-12-19T18:15:42.916Z,7.80
2022-12-19T18:18:14.730Z,6.07
2022-12-19T18:20:44.511Z,7.53
2022-12-19T18:23:19.003Z,7.70
2022-12-19T18:25:48.151Z,6.03
2022-12-19T18:28:17.200Z,6.70
2022-12-19T18:30:47.120Z,6.28
2022-12-19T18:33:18.171Z,3.37
2022-12-19T18:35:48.651Z,4.35
2022-12-19T18:38:20.597Z,3.90
2022-12-19T18:40:49.787Z,2.90
2022-12-19T18:43:19.249Z,4.32
2022-12-19T18:45:49.393Z,3.72
2022-12-19T18:48:23.303Z,4.68
2022-12-19T18:50:51.678Z,4.55
2022-12-19T18:53:23.308Z,3.70
2022-12-19T18:55:53.039Z,3.05
2022-12-19T18:58:21.598Z,4.00
2022-12-19T19:00:53.056Z,3.92
2022-12-19T19:03:29.439Z,3.58
2022-12-19T19:05:57.887Z,3.25
2022-12-19T19:08:30.066Z,3.50
2022-12-19T19:10:59.085Z,2.92
2022-12-19T19:13:28.670Z,3.10
2022-12-19T19:15:59.989Z,2.67
2022-12-19T19:18:34.458Z,2.42
2022-12-19T19:21:03.959Z,3.47
2022-12-19T19:23:37.507Z,3.38
2022-12-19T19:26:06.957Z,2.65
2022-12-19T19:28:37.285Z,2.50
2022-12-19T19:31:09.200Z,2.92
2022-12-19T19:33:41.217Z,2.33
2022-12-19T19:36:12.704Z,2.20
2022-12-19T19:38:44.544Z,2.33
2022-12-19T19:43:41.388Z,2.17
2022-12-19T19:46:09.713Z,1.90
2022-12-19T19:48:38.049Z,1.67
2022-12-19T19:51:06.598Z,2.13
2022-12-19T19:53:36.145Z,1.90
2022-12-19T19:56:06.213Z,1.70
2022-12-19T19:58:34.416Z,1.70
2022-12-19T20:01:08.647Z,2.10
2022-12-19T20:03:37.129Z,2.17
2022-12-19T20:06:05.708Z,2.40
2022-12-19T20:08:39.657Z,2.63
2022-12-19T20:11:11.272Z,2.35
2022-12-19T20:13:40.013Z,1.70
2022-12-19T20:16:10.392Z,2.00
2022-12-19T20:18:39.930Z,2.08
2022-12-19T20:21:13.251Z,1.95
2022-12-19T20:23:44.094Z,1.90
2022-12-19T20:26:17.504Z,2.72
2022-12-19T20:28:49.441Z,1.95
2022-12-19T20:31:19.827Z,1.80
2022-12-19T20:33:50.559Z,2.17
2022-12-19T20:36:19.063Z,2.40
2022-12-19T20:38:48.356Z,1.90
2022-12-19T20:41:18.368Z,2.55
2022-12-19T20:43:48.065Z,2.38
2022-12-19T20:46:19.083Z,2.13
2022-12-19T20:48:48.358Z,2.45
2022-12-19T20:51:17.784Z,3.28
2022-12-19T20:53:46.484Z,4.32
2022-12-19T20:56:18.864Z,4.53
2022-12-19T20:58:47.539Z,4.15
2022-12-19T21:01:17.799Z,4.82
2022-12-19T21:03:48.676Z,3.05
2022-12-19T21:06:18.796Z,3.25
2022-12-19T21:08:47.530Z,2.67
2022-12-19T21:11:16.793Z,2.70
2022-12-19T21:13:46.480Z,2.72
2022-12-19T21:16:18.443Z,3.90
2022-12-19T21:18:48.273Z,4.15
2022-12-19T21:21:19.362Z,5.47
2022-12-19T21:23:48.543Z,5.43
2022-12-19T21:26:16.984Z,6.35
2022-12-19T21:28:46.654Z,4.85
2022-12-19T21:31:17.361Z,2.78
2022-12-19T21:33:46.844Z,2.00
2022-12-19T21:36:19.049Z,2.35
2022-12-19T21:38:48.269Z,2.05
2022-12-19T21:41:18.996Z,2.15
2022-12-19T21:43:51.710Z,2.50
2022-12-19T21:46:21.397Z,2.03
2022-12-19T21:48:51.604Z,2.30
2022-12-19T21:51:21.894Z,1.73
2022-12-19T21:53:54.154Z,2.03
2022-12-19T21:56:25.550Z,1.95
2022-12-19T21:58:57.143Z,2.33
2022-12-19T22:01:26.150Z,2.50
2022-12-19T22:03:59.244Z,2.10
2022-12-19T22:06:31.301Z,2.08
2022-12-19T22:09:00.288Z,1.80
2022-12-19T22:11:30.503Z,2.17
2022-12-19T22:14:02.129Z,1.70
2022-12-19T22:16:31.098Z,2.03
2022-12-19T22:18:59.449Z,1.95
2022-12-19T22:21:28.376Z,2.05
2022-12-19T22:23:58.850Z,2.13
2022-12-19T22:26:28.715Z,2.13
2022-12-19T22:28:58.097Z,2.30
2022-12-19T22:31:29.465Z,2.33
2022-12-19T22:33:59.701Z,2.17
2022-12-19T22:36:29.573Z,2.58
2022-12-19T22:38:58.718Z,2.15
2022-12-19T22:41:28.059Z,2.10
2022-12-19T22:43:57.433Z,2.35
2022-12-19T22:46:29.819Z,1.85
2022-12-19T22:48:59.870Z,2.03
2022-12-19T22:51:29.617Z,2.15
2022-12-19T22:53:58.618Z,2.60
2022-12-19T22:56:29.263Z,2.63
2022-12-19T22:59:00.449Z,2.95
2022-12-19T23:01:32.037Z,2.65
2022-12-19T23:06:31.128Z,3.60
2022-12-19T23:08:59.587Z,3.95
2022-12-19T23:11:30.896Z,4.28
2022-12-19T23:13:59.446Z,4.18
2022-12-19T23:16:29.158Z,4.20
2022-12-19T23:18:57.547Z,4.18
2022-12-19T23:21:26.897Z,3.42
2022-12-19T23:23:56.441Z,3.08
2022-12-19T23:26:26.467Z,2.67
2022-12-19T23:28:56.936Z,2.40
2022-12-19T23:31:25.802Z,2.63
2022-12-19T23:33:56.101Z,2.80
2022-12-19T23:37:00.513Z,2.50
2022-12-19T23:39:14.241Z,2.35
2022-12-19T23:41:42.490Z,2.30
2022-12-19T23:44:13.558Z,2.58
2022-12-19T23:46:42.011Z,2.88
2022-12-19T23:49:11.707Z,2.67
2022-12-19T23:51:42.180Z,2.55
2022-12-19T23:54:10.383Z,2.67
2022-12-19T23:56:39.368Z,2.47
2022-12-19T23:59:07.818Z,3.00
